sensor_id;sensor_type;location;lat;lon;timestamp;P1;durP1;ratioP1;P2;durP2;ratioP2
18140;SDS011;9196;49.194;12.526;2023-05-23T00:01:05;11.37;;;9.60;;
18140;SDS011;9196;49.194;12.526;2023-05-23T00:03:32;9.30;;;8.50;;
18140;SDS011;9196;49.194;12.526;2023-05-23T00:05:59;9.80;;;8.80;;
18140;SDS011;9196;49.194;12.526;2023-05-23T00:08:26;10.67;;;9.57;;
18140;SDS011;9196;49.194;12.526;2023-05-23T00:10:53;9.83;;;8.90;;
18140;SDS011;9196;49.194;12.526;2023-05-23T00:13:21;12.53;;;9.53;;
18140;SDS011;9196;49.194;12.526;2023-05-23T00:15:48;10.03;;;9.03;;
18140;SDS011;9196;49.194;12.526;2023-05-23T00:18:15;17.20;;;9.83;;
18140;SDS011;9196;49.194;12.526;2023-05-23T00:20:42;15.90;;;9.97;;
18140;SDS011;9196;49.194;12.526;2023-05-23T00:23:09;11.30;;;9.87;;
18140;SDS011;9196;49.194;12.526;2023-05-23T00:25:42;10.40;;;9.40;;
18140;SDS011;9196;49.194;12.526;2023-05-23T00:28:12;9.57;;;8.63;;
18140;SDS011;9196;49.194;12.526;2023-05-23T00:30:41;11.37;;;10.17;;
18140;SDS011;9196;49.194;12.526;2023-05-23T00:33:08;12.17;;;9.63;;
18140;SDS011;9196;49.194;12.526;2023-05-23T00:35:37;12.50;;;9.60;;
18140;SDS011;9196;49.194;12.526;2023-05-23T00:38:04;11.57;;;10.40;;
18140;SDS011;9196;49.194;12.526;2023-05-23T00:40:31;11.67;;;10.57;;
18140;SDS011;9196;49.194;12.526;2023-05-23T00:42:58;10.87;;;9.90;;
18140;SDS011;9196;49.194;12.526;2023-05-23T00:45:25;10.97;;;9.83;;
18140;SDS011;9196;49.194;12.526;2023-05-23T00:47:54;11.87;;;10.77;;
18140;SDS011;9196;49.194;12.526;2023-05-23T00:50:23;14.07;;;11.90;;
18140;SDS011;9196;49.194;12.526;2023-05-23T00:52:54;15.43;;;12.03;;
18140;SDS011;9196;49.194;12.526;2023-05-23T00:55:21;13.20;;;10.67;;
18140;SDS011;9196;49.194;12.526;2023-05-23T00:57:48;12.23;;;11.03;;
18140;SDS011;9196;49.194;12.526;2023-05-23T01:00:18;13.93;;;9.80;;
18140;SDS011;9196;49.194;12.526;2023-05-23T01:02:45;11.20;;;10.10;;
18140;SDS011;9196;49.194;12.526;2023-05-23T01:05:17;12.50;;;11.20;;
18140;SDS011;9196;49.194;12.526;2023-05-23T01:07:46;11.90;;;10.73;;
18140;SDS011;9196;49.194;12.526;2023-05-23T01:10:16;11.63;;;10.00;;
18140;SDS011;9196;49.194;12.526;2023-05-23T01:12:46;12.80;;;10.37;;
18140;SDS011;9196;49.194;12.526;2023-05-23T01:15:20;11.10;;;10.00;;
18140;SDS011;9196;49.194;12.526;2023-05-23T01:17:54;10.83;;;9.77;;
18140;SDS011;9196;49.194;12.526;2023-05-23T01:20:28;14.77;;;9.60;;
18140;SDS011;9196;49.194;12.526;2023-05-23T01:23:09;10.67;;;9.63;;
18140;SDS011;9196;49.194;12.526;2023-05-23T01:25:53;13.97;;;10.20;;
18140;SDS011;9196;49.194;12.526;2023-05-23T01:28:31;10.33;;;9.30;;
18140;SDS011;9196;49.194;12.526;2023-05-23T01:31:03;12.07;;;10.87;;
18140;SDS011;9196;49.194;12.526;2023-05-23T01:33:31;16.43;;;11.00;;
18140;SDS011;9196;49.194;12.526;2023-05-23T01:35:59;28.67;;;11.07;;
18140;SDS011;9196;49.194;12.526;2023-05-23T01:38:28;13.83;;;11.50;;
18140;SDS011;9196;49.194;12.526;2023-05-23T01:40:55;13.07;;;11.20;;
18140;SDS011;9196;49.194;12.526;2023-05-23T01:43:22;12.47;;;10.73;;
18140;SDS011;9196;49.194;12.526;2023-05-23T01:45:51;12.63;;;11.43;;
18140;SDS011;9196;49.194;12.526;2023-05-23T01:48:21;11.33;;;10.23;;
18140;SDS011;9196;49.194;12.526;2023-05-23T01:50:49;10.87;;;9.77;;
18140;SDS011;9196;49.194;12.526;2023-05-23T01:53:18;10.67;;;9.40;;
18140;SDS011;9196;49.194;12.526;2023-05-23T01:55:46;12.87;;;10.13;;
18140;SDS011;9196;49.194;12.526;2023-05-23T01:58:13;12.80;;;11.53;;
18140;SDS011;9196;49.194;12.526;2023-05-23T02:00:40;14.17;;;9.73;;
18140;SDS011;9196;49.194;12.526;2023-05-23T02:03:08;12.33;;;10.20;;
18140;SDS011;9196;49.194;12.526;2023-05-23T02:05:35;12.50;;;10.30;;
18140;SDS011;9196;49.194;12.526;2023-05-23T02:08:03;13.63;;;11.13;;
18140;SDS011;9196;49.194;12.526;2023-05-23T02:10:29;22.53;;;13.67;;
18140;SDS011;9196;49.194;12.526;2023-05-23T02:12:56;11.00;;;10.00;;
18140;SDS011;9196;49.194;12.526;2023-05-23T02:15:23;13.70;;;10.77;;
18140;SDS011;9196;49.194;12.526;2023-05-23T02:17:50;11.27;;;10.17;;
18140;SDS011;9196;49.194;12.526;2023-05-23T02:20:18;11.83;;;10.63;;
18140;SDS011;9196;49.194;12.526;2023-05-23T02:22:45;10.43;;;9.27;;
18140;SDS011;9196;49.194;12.526;2023-05-23T02:25:12;10.40;;;9.00;;
18140;SDS011;9196;49.194;12.526;2023-05-23T02:27:39;11.90;;;9.90;;
18140;SDS011;9196;49.194;12.526;2023-05-23T02:30:06;12.90;;;10.07;;
18140;SDS011;9196;49.194;12.526;2023-05-23T02:32:34;13.57;;;9.80;;
18140;SDS011;9196;49.194;12.526;2023-05-23T02:35:01;10.93;;;9.83;;
18140;SDS011;9196;49.194;12.526;2023-05-23T02:37:30;14.30;;;10.47;;
18140;SDS011;9196;49.194;12.526;2023-05-23T02:39:57;10.60;;;9.60;;
18140;SDS011;9196;49.194;12.526;2023-05-23T02:42:24;13.37;;;11.97;;
18140;SDS011;9196;49.194;12.526;2023-05-23T02:44:50;12.70;;;11.10;;
18140;SDS011;9196;49.194;12.526;2023-05-23T02:47:17;12.97;;;10.10;;
18140;SDS011;9196;49.194;12.526;2023-05-23T02:49:44;11.57;;;10.37;;
18140;SDS011;9196;49.194;12.526;2023-05-23T02:52:11;10.10;;;9.10;;
18140;SDS011;9196;49.194;12.526;2023-05-23T02:54:40;11.40;;;9.80;;
18140;SDS011;9196;49.194;12.526;2023-05-23T02:57:06;10.53;;;9.53;;
18140;SDS011;9196;49.194;12.526;2023-05-23T02:59:33;12.93;;;9.90;;
18140;SDS011;9196;49.194;12.526;2023-05-23T03:02:00;12.43;;;11.13;;
18140;SDS011;9196;49.194;12.526;2023-05-23T03:04:27;14.03;;;10.37;;
18140;SDS011;9196;49.194;12.526;2023-05-23T03:06:53;13.47;;;10.27;;
18140;SDS011;9196;49.194;12.526;2023-05-23T03:09:20;11.50;;;10.40;;
18140;SDS011;9196;49.194;12.526;2023-05-23T03:11:48;12.57;;;9.73;;
18140;SDS011;9196;49.194;12.526;2023-05-23T03:14:16;11.63;;;10.00;;
18140;SDS011;9196;49.194;12.526;2023-05-23T03:16:42;15.17;;;11.40;;
18140;SDS011;9196;49.194;12.526;2023-05-23T03:19:09;11.37;;;10.17;;
18140;SDS011;9196;49.194;12.526;2023-05-23T03:21:36;12.07;;;10.40;;
18140;SDS011;9196;49.194;12.526;2023-05-23T03:24:04;13.23;;;10.50;;
18140;SDS011;9196;49.194;12.526;2023-05-23T03:26:31;12.07;;;10.57;;
18140;SDS011;9196;49.194;12.526;2023-05-23T03:28:59;11.77;;;10.67;;
18140;SDS011;9196;49.194;12.526;2023-05-23T03:31:26;27.20;;;10.40;;
18140;SDS011;9196;49.194;12.526;2023-05-23T03:33:52;9.60;;;8.70;;
18140;SDS011;9196;49.194;12.526;2023-05-23T03:36:19;12.27;;;11.07;;
18140;SDS011;9196;49.194;12.526;2023-05-23T03:38:49;13.67;;;10.47;;
18140;SDS011;9196;49.194;12.526;2023-05-23T03:41:17;11.13;;;10.03;;
18140;SDS011;9196;49.194;12.526;2023-05-23T03:43:43;11.70;;;10.50;;
18140;SDS011;9196;49.194;12.526;2023-05-23T03:46:12;11.30;;;10.20;;
18140;SDS011;9196;49.194;12.526;2023-05-23T03:48:38;14.50;;;11.27;;
18140;SDS011;9196;49.194;12.526;2023-05-23T03:51:05;11.77;;;10.67;;
18140;SDS011;9196;49.194;12.526;2023-05-23T03:53:32;13.10;;;9.70;;
18140;SDS011;9196;49.194;12.526;2023-05-23T03:55:59;12.23;;;11.03;;
18140;SDS011;9196;49.194;12.526;2023-05-23T03:58:25;12.10;;;10.97;;
18140;SDS011;9196;49.194;12.526;2023-05-23T04:00:52;15.93;;;11.47;;
18140;SDS011;9196;49.194;12.526;2023-05-23T04:03:20;14.33;;;10.77;;
18140;SDS011;9196;49.194;12.526;2023-05-23T04:05:47;12.30;;;10.10;;
18140;SDS011;9196;49.194;12.526;2023-05-23T04:08:14;11.17;;;9.97;;
18140;SDS011;9196;49.194;12.526;2023-05-23T04:10:41;11.97;;;10.77;;
18140;SDS011;9196;49.194;12.526;2023-05-23T04:13:08;12.40;;;11.30;;
18140;SDS011;9196;49.194;12.526;2023-05-23T04:15:35;14.60;;;11.13;;
18140;SDS011;9196;49.194;12.526;2023-05-23T04:18:01;12.00;;;10.70;;
18140;SDS011;9196;49.194;12.526;2023-05-23T04:20:30;13.00;;;11.17;;
18140;SDS011;9196;49.194;12.526;2023-05-23T04:22:57;18.13;;;11.70;;
18140;SDS011;9196;49.194;12.526;2023-05-23T04:25:23;18.17;;;12.30;;
18140;SDS011;9196;49.194;12.526;2023-05-23T04:27:50;14.00;;;10.93;;
18140;SDS011;9196;49.194;12.526;2023-05-23T04:30:18;15.47;;;12.20;;
18140;SDS011;9196;49.194;12.526;2023-05-23T04:32:45;17.17;;;11.40;;
18140;SDS011;9196;49.194;12.526;2023-05-23T04:35:12;13.87;;;10.33;;
18140;SDS011;9196;49.194;12.526;2023-05-23T04:37:40;18.53;;;11.93;;
18140;SDS011;9196;49.194;12.526;2023-05-23T04:40:09;12.43;;;10.50;;
18140;SDS011;9196;49.194;12.526;2023-05-23T04:42:37;14.13;;;11.67;;
18140;SDS011;9196;49.194;12.526;2023-05-23T04:45:06;11.87;;;10.67;;
18140;SDS011;9196;49.194;12.526;2023-05-23T04:47:34;12.83;;;11.03;;
18140;SDS011;9196;49.194;12.526;2023-05-23T04:50:01;12.50;;;10.83;;
18140;SDS011;9196;49.194;12.526;2023-05-23T04:52:28;12.87;;;11.57;;
18140;SDS011;9196;49.194;12.526;2023-05-23T04:54:58;12.77;;;11.40;;
18140;SDS011;9196;49.194;12.526;2023-05-23T04:57:25;13.40;;;12.10;;
18140;SDS011;9196;49.194;12.526;2023-05-23T04:59:52;13.00;;;11.40;;
18140;SDS011;9196;49.194;12.526;2023-05-23T05:02:19;12.07;;;10.97;;
18140;SDS011;9196;49.194;12.526;2023-05-23T05:04:46;15.03;;;12.30;;
18140;SDS011;9196;49.194;12.526;2023-05-23T05:07:12;13.10;;;11.63;;
18140;SDS011;9196;49.194;12.526;2023-05-23T05:09:40;15.80;;;12.97;;
18140;SDS011;9196;49.194;12.526;2023-05-23T05:12:08;23.90;;;12.70;;
18140;SDS011;9196;49.194;12.526;2023-05-23T05:14:36;13.43;;;12.03;;
18140;SDS011;9196;49.194;12.526;2023-05-23T05:17:03;12.50;;;11.30;;
18140;SDS011;9196;49.194;12.526;2023-05-23T05:19:30;17.73;;;11.33;;
18140;SDS011;9196;49.194;12.526;2023-05-23T05:21:57;12.90;;;11.50;;
18140;SDS011;9196;49.194;12.526;2023-05-23T05:24:25;13.90;;;11.77;;
18140;SDS011;9196;49.194;12.526;2023-05-23T05:26:53;12.97;;;11.57;;
18140;SDS011;9196;49.194;12.526;2023-05-23T05:29:21;12.90;;;11.53;;
18140;SDS011;9196;49.194;12.526;2023-05-23T05:31:48;12.80;;;11.37;;
18140;SDS011;9196;49.194;12.526;2023-05-23T05:34:14;14.40;;;11.57;;
18140;SDS011;9196;49.194;12.526;2023-05-23T05:36:41;15.50;;;13.53;;
18140;SDS011;9196;49.194;12.526;2023-05-23T05:39:11;13.60;;;11.47;;
18140;SDS011;9196;49.194;12.526;2023-05-23T05:41:39;12.90;;;11.60;;
18140;SDS011;9196;49.194;12.526;2023-05-23T05:44:06;15.80;;;11.13;;
18140;SDS011;9196;49.194;12.526;2023-05-23T05:46:35;15.20;;;13.60;;
18140;SDS011;9196;49.194;12.526;2023-05-23T05:49:01;15.13;;;12.20;;
18140;SDS011;9196;49.194;12.526;2023-05-23T05:51:28;14.00;;;11.40;;
18140;SDS011;9196;49.194;12.526;2023-05-23T05:53:55;20.43;;;13.70;;
18140;SDS011;9196;49.194;12.526;2023-05-23T05:56:22;15.43;;;13.53;;
18140;SDS011;9196;49.194;12.526;2023-05-23T05:58:49;18.80;;;13.87;;
18140;SDS011;9196;49.194;12.526;2023-05-23T06:01:15;16.27;;;14.43;;
18140;SDS011;9196;49.194;12.526;2023-05-23T06:03:44;14.37;;;12.67;;
18140;SDS011;9196;49.194;12.526;2023-05-23T06:06:11;20.60;;;13.90;;
18140;SDS011;9196;49.194;12.526;2023-05-23T06:08:38;16.63;;;11.60;;
18140;SDS011;9196;49.194;12.526;2023-05-23T06:11:05;18.33;;;12.57;;
18140;SDS011;9196;49.194;12.526;2023-05-23T06:13:31;14.33;;;12.83;;
18140;SDS011;9196;49.194;12.526;2023-05-23T06:15:58;18.03;;;12.97;;
18140;SDS011;9196;49.194;12.526;2023-05-23T06:18:25;16.23;;;12.50;;
18140;SDS011;9196;49.194;12.526;2023-05-23T06:20:53;16.80;;;12.10;;
18140;SDS011;9196;49.194;12.526;2023-05-23T06:23:21;12.67;;;11.20;;
18140;SDS011;9196;49.194;12.526;2023-05-23T06:25:56;16.70;;;11.80;;
18140;SDS011;9196;49.194;12.526;2023-05-23T06:28:27;15.23;;;12.13;;
18140;SDS011;9196;49.194;12.526;2023-05-23T06:30:54;15.03;;;13.53;;
18140;SDS011;9196;49.194;12.526;2023-05-23T06:33:20;14.30;;;12.80;;
18140;SDS011;9196;49.194;12.526;2023-05-23T06:35:47;13.90;;;12.43;;
18140;SDS011;9196;49.194;12.526;2023-05-23T06:38:15;15.80;;;12.63;;
18140;SDS011;9196;49.194;12.526;2023-05-23T06:40:42;16.20;;;12.47;;
18140;SDS011;9196;49.194;12.526;2023-05-23T06:43:09;16.00;;;12.03;;
18140;SDS011;9196;49.194;12.526;2023-05-23T06:45:35;14.33;;;11.30;;
18140;SDS011;9196;49.194;12.526;2023-05-23T06:48:02;15.50;;;12.30;;
18140;SDS011;9196;49.194;12.526;2023-05-23T06:50:29;13.60;;;11.87;;
18140;SDS011;9196;49.194;12.526;2023-05-23T06:52:56;18.37;;;13.63;;
18140;SDS011;9196;49.194;12.526;2023-05-23T06:55:24;14.00;;;12.50;;
18140;SDS011;9196;49.194;12.526;2023-05-23T06:57:52;14.03;;;12.63;;
18140;SDS011;9196;49.194;12.526;2023-05-23T07:00:19;16.33;;;11.23;;
18140;SDS011;9196;49.194;12.526;2023-05-23T07:02:45;16.90;;;12.20;;
18140;SDS011;9196;49.194;12.526;2023-05-23T07:05:13;13.27;;;11.90;;
18140;SDS011;9196;49.194;12.526;2023-05-23T07:07:41;12.63;;;11.33;;
18140;SDS011;9196;49.194;12.526;2023-05-23T07:10:08;15.93;;;11.57;;
18140;SDS011;9196;49.194;12.526;2023-05-23T07:12:37;13.63;;;10.70;;
18140;SDS011;9196;49.194;12.526;2023-05-23T07:15:04;13.10;;;11.53;;
18140;SDS011;9196;49.194;12.526;2023-05-23T07:17:31;12.13;;;11.00;;
18140;SDS011;9196;49.194;12.526;2023-05-23T07:20:00;11.97;;;10.87;;
18140;SDS011;9196;49.194;12.526;2023-05-23T07:22:28;14.43;;;13.00;;
18140;SDS011;9196;49.194;12.526;2023-05-23T07:24:55;11.77;;;10.57;;
18140;SDS011;9196;49.194;12.526;2023-05-23T07:27:21;13.80;;;12.30;;
18140;SDS011;9196;49.194;12.526;2023-05-23T07:29:50;12.13;;;10.77;;
18140;SDS011;9196;49.194;12.526;2023-05-23T07:32:16;12.13;;;10.97;;
18140;SDS011;9196;49.194;12.526;2023-05-23T07:34:43;13.60;;;10.40;;
18140;SDS011;9196;49.194;12.526;2023-05-23T07:37:10;12.43;;;11.30;;
18140;SDS011;9196;49.194;12.526;2023-05-23T07:39:37;11.93;;;10.67;;
18140;SDS011;9196;49.194;12.526;2023-05-23T07:42:04;11.03;;;10.07;;
18140;SDS011;9196;49.194;12.526;2023-05-23T07:44:30;28.40;;;10.20;;
18140;SDS011;9196;49.194;12.526;2023-05-23T07:46:59;14.17;;;10.33;;
18140;SDS011;9196;49.194;12.526;2023-05-23T07:49:25;11.53;;;10.33;;
18140;SDS011;9196;49.194;12.526;2023-05-23T07:51:52;18.63;;;9.87;;
18140;SDS011;9196;49.194;12.526;2023-05-23T07:54:19;11.53;;;9.30;;
18140;SDS011;9196;49.194;12.526;2023-05-23T07:56:46;11.23;;;10.00;;
18140;SDS011;9196;49.194;12.526;2023-05-23T07:59:12;10.03;;;9.00;;
18140;SDS011;9196;49.194;12.526;2023-05-23T08:01:39;15.53;;;9.40;;
18140;SDS011;9196;49.194;12.526;2023-05-23T08:04:07;12.57;;;11.20;;
18140;SDS011;9196;49.194;12.526;2023-05-23T08:06:34;13.10;;;9.53;;
18140;SDS011;9196;49.194;12.526;2023-05-23T08:09:01;10.37;;;9.23;;
18140;SDS011;9196;49.194;12.526;2023-05-23T08:11:29;11.37;;;10.30;;
18140;SDS011;9196;49.194;12.526;2023-05-23T08:13:56;10.33;;;9.27;;
18140;SDS011;9196;49.194;12.526;2023-05-23T08:16:24;11.10;;;10.00;;
18140;SDS011;9196;49.194;12.526;2023-05-23T08:18:51;14.53;;;9.33;;
18140;SDS011;9196;49.194;12.526;2023-05-23T08:21:20;12.53;;;10.60;;
18140;SDS011;9196;49.194;12.526;2023-05-23T08:23:47;10.53;;;9.40;;
18140;SDS011;9196;49.194;12.526;2023-05-23T08:26:13;9.90;;;9.00;;
18140;SDS011;9196;49.194;12.526;2023-05-23T08:28:40;13.17;;;9.63;;
18140;SDS011;9196;49.194;12.526;2023-05-23T08:31:07;11.17;;;8.43;;
18140;SDS011;9196;49.194;12.526;2023-05-23T08:33:33;13.43;;;9.30;;
18140;SDS011;9196;49.194;12.526;2023-05-23T08:36:00;11.10;;;8.43;;
18140;SDS011;9196;49.194;12.526;2023-05-23T08:38:28;10.03;;;9.07;;
18140;SDS011;9196;49.194;12.526;2023-05-23T08:40:55;8.40;;;7.57;;
18140;SDS011;9196;49.194;12.526;2023-05-23T08:43:27;15.13;;;9.60;;
18140;SDS011;9196;49.194;12.526;2023-05-23T08:45:54;11.70;;;8.93;;
18140;SDS011;9196;49.194;12.526;2023-05-23T08:48:21;9.47;;;8.60;;
18140;SDS011;9196;49.194;12.526;2023-05-23T08:50:50;10.37;;;8.77;;
18140;SDS011;9196;49.194;12.526;2023-05-23T08:53:18;9.80;;;8.80;;
18140;SDS011;9196;49.194;12.526;2023-05-23T08:55:49;16.37;;;8.87;;
18140;SDS011;9196;49.194;12.526;2023-05-23T08:58:18;10.50;;;8.30;;
18140;SDS011;9196;49.194;12.526;2023-05-23T09:00:46;8.47;;;7.67;;
18140;SDS011;9196;49.194;12.526;2023-05-23T09:03:14;9.93;;;8.07;;
18140;SDS011;9196;49.194;12.526;2023-05-23T09:05:41;11.80;;;8.43;;
18140;SDS011;9196;49.194;12.526;2023-05-23T09:08:08;8.23;;;7.53;;
18140;SDS011;9196;49.194;12.526;2023-05-23T09:10:35;9.13;;;7.73;;
18140;SDS011;9196;49.194;12.526;2023-05-23T09:13:03;9.53;;;8.43;;
18140;SDS011;9196;49.194;12.526;2023-05-23T09:15:30;8.80;;;7.90;;
18140;SDS011;9196;49.194;12.526;2023-05-23T09:17:58;9.30;;;8.30;;
18140;SDS011;9196;49.194;12.526;2023-05-23T09:20:27;10.20;;;7.30;;
18140;SDS011;9196;49.194;12.526;2023-05-23T09:22:54;10.20;;;7.60;;
18140;SDS011;9196;49.194;12.526;2023-05-23T09:25:21;11.93;;;7.43;;
18140;SDS011;9196;49.194;12.526;2023-05-23T09:27:50;16.87;;;8.17;;
18140;SDS011;9196;49.194;12.526;2023-05-23T09:30:20;9.10;;;8.20;;
18140;SDS011;9196;49.194;12.526;2023-05-23T09:32:57;8.90;;;8.00;;
18140;SDS011;9196;49.194;12.526;2023-05-23T09:35:24;11.57;;;9.90;;
18140;SDS011;9196;49.194;12.526;2023-05-23T09:37:54;9.57;;;8.60;;
18140;SDS011;9196;49.194;12.526;2023-05-23T09:40:23;14.53;;;8.10;;
18140;SDS011;9196;49.194;12.526;2023-05-23T09:42:55;10.27;;;8.90;;
18140;SDS011;9196;49.194;12.526;2023-05-23T09:45:29;9.60;;;8.43;;
18140;SDS011;9196;49.194;12.526;2023-05-23T09:47:56;14.43;;;8.43;;
18140;SDS011;9196;49.194;12.526;2023-05-23T09:50:25;10.53;;;7.70;;
18140;SDS011;9196;49.194;12.526;2023-05-23T09:52:57;8.83;;;8.00;;
18140;SDS011;9196;49.194;12.526;2023-05-23T09:55:24;8.83;;;7.80;;
18140;SDS011;9196;49.194;12.526;2023-05-23T09:57:51;8.27;;;7.47;;
18140;SDS011;9196;49.194;12.526;2023-05-23T10:00:20;10.50;;;7.97;;
18140;SDS011;9196;49.194;12.526;2023-05-23T10:02:57;13.53;;;8.57;;
18140;SDS011;9196;49.194;12.526;2023-05-23T10:05:35;9.37;;;8.17;;
18140;SDS011;9196;49.194;12.526;2023-05-23T10:08:07;9.50;;;8.50;;
18140;SDS011;9196;49.194;12.526;2023-05-23T10:10:43;11.37;;;8.87;;
18140;SDS011;9196;49.194;12.526;2023-05-23T10:13:53;8.53;;;7.73;;
18140;SDS011;9196;49.194;12.526;2023-05-23T10:16:22;7.43;;;6.73;;
18140;SDS011;9196;49.194;12.526;2023-05-23T10:18:55;8.20;;;7.40;;
18140;SDS011;9196;49.194;12.526;2023-05-23T10:21:26;8.40;;;7.60;;
18140;SDS011;9196;49.194;12.526;2023-05-23T10:23:57;8.73;;;7.50;;
18140;SDS011;9196;49.194;12.526;2023-05-23T10:26:25;16.80;;;8.10;;
18140;SDS011;9196;49.194;12.526;2023-05-23T10:28:52;10.70;;;8.00;;
18140;SDS011;9196;49.194;12.526;2023-05-23T10:31:20;11.60;;;7.60;;
18140;SDS011;9196;49.194;12.526;2023-05-23T10:33:49;8.93;;;6.73;;
18140;SDS011;9196;49.194;12.526;2023-05-23T10:36:32;7.70;;;7.00;;
18140;SDS011;9196;49.194;12.526;2023-05-23T10:39:07;7.00;;;6.40;;
18140;SDS011;9196;49.194;12.526;2023-05-23T10:41:42;9.80;;;7.57;;
18140;SDS011;9196;49.194;12.526;2023-05-23T10:44:15;7.23;;;6.50;;
18140;SDS011;9196;49.194;12.526;2023-05-23T10:46:51;6.60;;;5.87;;
18140;SDS011;9196;49.194;12.526;2023-05-23T10:49:20;9.57;;;6.37;;
18140;SDS011;9196;49.194;12.526;2023-05-23T10:52:02;8.37;;;6.37;;
18140;SDS011;9196;49.194;12.526;2023-05-23T10:54:33;17.33;;;6.53;;
18140;SDS011;9196;49.194;12.526;2023-05-23T10:57:03;6.83;;;6.23;;
18140;SDS011;9196;49.194;12.526;2023-05-23T10:59:31;8.37;;;7.17;;
18140;SDS011;9196;49.194;12.526;2023-05-23T11:01:58;9.50;;;7.40;;
18140;SDS011;9196;49.194;12.526;2023-05-23T11:04:27;9.33;;;6.60;;
18140;SDS011;9196;49.194;12.526;2023-05-23T11:06:55;11.00;;;6.93;;
18140;SDS011;9196;49.194;12.526;2023-05-23T11:09:22;9.73;;;7.87;;
18140;SDS011;9196;49.194;12.526;2023-05-23T11:11:52;14.30;;;8.47;;
18140;SDS011;9196;49.194;12.526;2023-05-23T11:14:30;7.33;;;6.60;;
18140;SDS011;9196;49.194;12.526;2023-05-23T11:16:58;10.93;;;7.93;;
18140;SDS011;9196;49.194;12.526;2023-05-23T11:19:25;11.00;;;8.00;;
18140;SDS011;9196;49.194;12.526;2023-05-23T11:21:56;9.80;;;7.70;;
18140;SDS011;9196;49.194;12.526;2023-05-23T11:27:13;16.37;;;8.53;;
18140;SDS011;9196;49.194;12.526;2023-05-23T11:29:44;14.23;;;8.57;;
18140;SDS011;9196;49.194;12.526;2023-05-23T11:32:11;10.03;;;7.10;;
18140;SDS011;9196;49.194;12.526;2023-05-23T11:34:39;9.40;;;7.57;;
18140;SDS011;9196;49.194;12.526;2023-05-23T11:37:06;7.63;;;6.93;;
18140;SDS011;9196;49.194;12.526;2023-05-23T11:39:35;8.50;;;7.30;;
18140;SDS011;9196;49.194;12.526;2023-05-23T11:42:02;8.07;;;7.27;;
18140;SDS011;9196;49.194;12.526;2023-05-23T11:44:29;6.90;;;6.23;;
18140;SDS011;9196;49.194;12.526;2023-05-23T11:47:00;10.93;;;7.23;;
18140;SDS011;9196;49.194;12.526;2023-05-23T11:49:28;8.80;;;7.73;;
18140;SDS011;9196;49.194;12.526;2023-05-23T11:51:56;6.87;;;6.27;;
18140;SDS011;9196;49.194;12.526;2023-05-23T11:54:24;11.50;;;6.50;;
18140;SDS011;9196;49.194;12.526;2023-05-23T11:56:51;8.50;;;7.00;;
18140;SDS011;9196;49.194;12.526;2023-05-23T11:59:19;8.37;;;6.67;;
18140;SDS011;9196;49.194;12.526;2023-05-23T12:01:47;8.37;;;6.87;;
18140;SDS011;9196;49.194;12.526;2023-05-23T12:04:14;8.10;;;7.00;;
18140;SDS011;9196;49.194;12.526;2023-05-23T12:06:41;7.60;;;6.90;;
18140;SDS011;9196;49.194;12.526;2023-05-23T12:09:10;7.90;;;6.67;;
18140;SDS011;9196;49.194;12.526;2023-05-23T12:11:38;8.13;;;7.30;;
18140;SDS011;9196;49.194;12.526;2023-05-23T12:14:05;12.77;;;7.10;;
18140;SDS011;9196;49.194;12.526;2023-05-23T12:16:33;9.77;;;6.87;;
18140;SDS011;9196;49.194;12.526;2023-05-23T12:19:01;8.30;;;6.80;;
18140;SDS011;9196;49.194;12.526;2023-05-23T12:21:39;7.43;;;6.50;;
18140;SDS011;9196;49.194;12.526;2023-05-23T12:24:15;6.03;;;5.60;;
18140;SDS011;9196;49.194;12.526;2023-05-23T12:26:46;12.63;;;7.27;;
18140;SDS011;9196;49.194;12.526;2023-05-23T12:29:14;10.97;;;6.33;;
18140;SDS011;9196;49.194;12.526;2023-05-23T12:31:41;11.63;;;6.50;;
18140;SDS011;9196;49.194;12.526;2023-05-23T12:34:09;11.00;;;6.73;;
18140;SDS011;9196;49.194;12.526;2023-05-23T12:36:37;7.07;;;6.37;;
18140;SDS011;9196;49.194;12.526;2023-05-23T12:39:04;6.63;;;5.70;;
18140;SDS011;9196;49.194;12.526;2023-05-23T12:41:33;6.77;;;6.27;;
18140;SDS011;9196;49.194;12.526;2023-05-23T12:44:00;8.53;;;5.70;;
18140;SDS011;9196;49.194;12.526;2023-05-23T12:46:28;7.40;;;6.70;;
18140;SDS011;9196;49.194;12.526;2023-05-23T12:48:55;7.03;;;6.13;;
18140;SDS011;9196;49.194;12.526;2023-05-23T12:51:22;7.97;;;6.77;;
18140;SDS011;9196;49.194;12.526;2023-05-23T12:53:49;6.57;;;6.07;;
18140;SDS011;9196;49.194;12.526;2023-05-23T12:56:16;6.80;;;6.20;;
18140;SDS011;9196;49.194;12.526;2023-05-23T12:58:44;9.23;;;7.17;;
18140;SDS011;9196;49.194;12.526;2023-05-23T13:01:11;7.53;;;6.23;;
18140;SDS011;9196;49.194;12.526;2023-05-23T13:03:39;7.73;;;6.93;;
18140;SDS011;9196;49.194;12.526;2023-05-23T13:06:06;7.63;;;6.90;;
18140;SDS011;9196;49.194;12.526;2023-05-23T13:08:33;7.20;;;6.50;;
18140;SDS011;9196;49.194;12.526;2023-05-23T13:10:59;6.27;;;5.73;;
18140;SDS011;9196;49.194;12.526;2023-05-23T13:13:27;6.23;;;5.63;;
18140;SDS011;9196;49.194;12.526;2023-05-23T13:15:57;12.87;;;7.03;;
18140;SDS011;9196;49.194;12.526;2023-05-23T13:18:25;12.47;;;6.57;;
18140;SDS011;9196;49.194;12.526;2023-05-23T13:20:52;6.97;;;6.20;;
18140;SDS011;9196;49.194;12.526;2023-05-23T13:23:19;7.27;;;6.57;;
18140;SDS011;9196;49.194;12.526;2023-05-23T13:25:46;7.20;;;6.30;;
18140;SDS011;9196;49.194;12.526;2023-05-23T13:28:14;7.30;;;6.43;;
18140;SDS011;9196;49.194;12.526;2023-05-23T13:30:41;7.60;;;6.60;;
18140;SDS011;9196;49.194;12.526;2023-05-23T13:33:09;11.67;;;5.90;;
18140;SDS011;9196;49.194;12.526;2023-05-23T13:35:36;9.23;;;6.33;;
18140;SDS011;9196;49.194;12.526;2023-05-23T13:38:03;6.97;;;6.07;;
18140;SDS011;9196;49.194;12.526;2023-05-23T13:40:29;7.03;;;6.30;;
18140;SDS011;9196;49.194;12.526;2023-05-23T13:42:56;11.23;;;5.07;;
18140;SDS011;9196;49.194;12.526;2023-05-23T13:45:23;6.60;;;6.00;;
18140;SDS011;9196;49.194;12.526;2023-05-23T13:47:50;9.63;;;5.83;;
18140;SDS011;9196;49.194;12.526;2023-05-23T13:50:19;8.67;;;5.47;;
18140;SDS011;9196;49.194;12.526;2023-05-23T13:52:45;6.60;;;5.53;;
18140;SDS011;9196;49.194;12.526;2023-05-23T13:55:12;5.30;;;5.00;;
18140;SDS011;9196;49.194;12.526;2023-05-23T13:57:39;7.20;;;6.13;;
18140;SDS011;9196;49.194;12.526;2023-05-23T14:00:06;9.67;;;5.53;;
18140;SDS011;9196;49.194;12.526;2023-05-23T14:02:34;12.23;;;6.00;;
18140;SDS011;9196;49.194;12.526;2023-05-23T14:05:00;7.43;;;6.07;;
18140;SDS011;9196;49.194;12.526;2023-05-23T14:07:29;6.27;;;5.60;;
18140;SDS011;9196;49.194;12.526;2023-05-23T14:09:56;6.70;;;5.60;;
18140;SDS011;9196;49.194;12.526;2023-05-23T14:12:23;9.37;;;6.00;;
18140;SDS011;9196;49.194;12.526;2023-05-23T14:14:50;11.10;;;5.30;;
18140;SDS011;9196;49.194;12.526;2023-05-23T14:17:17;5.70;;;4.67;;
18140;SDS011;9196;49.194;12.526;2023-05-23T14:19:44;5.10;;;4.70;;
18140;SDS011;9196;49.194;12.526;2023-05-23T14:22:11;5.70;;;4.43;;
18140;SDS011;9196;49.194;12.526;2023-05-23T14:24:40;8.30;;;4.50;;
18140;SDS011;9196;49.194;12.526;2023-05-23T14:27:06;4.63;;;4.23;;
18140;SDS011;9196;49.194;12.526;2023-05-23T14:29:33;5.10;;;4.70;;
18140;SDS011;9196;49.194;12.526;2023-05-23T14:32:00;5.23;;;4.00;;
18140;SDS011;9196;49.194;12.526;2023-05-23T14:34:28;10.33;;;4.43;;
18140;SDS011;9196;49.194;12.526;2023-05-23T14:36:54;3.63;;;3.40;;
18140;SDS011;9196;49.194;12.526;2023-05-23T14:39:21;9.43;;;3.60;;
18140;SDS011;9196;49.194;12.526;2023-05-23T14:41:50;3.50;;;2.97;;